createdAt,value
2018-09-02T00:00:30.445Z,59.56
2018-09-02T00:01:30.419Z,58.03
2018-09-02T00:02:30.386Z,59.94
2018-09-02T00:03:30.358Z,59.66
2018-09-02T00:04:30.335Z,59.18
2018-09-02T00:05:30.314Z,59.75
2018-09-02T00:06:30.291Z,60.33
2018-09-02T00:07:30.257Z,59.37
2018-09-02T00:08:30.242Z,59.84
2018-09-02T00:09:30.203Z,60.42
2018-09-02T00:10:30.177Z,59.18
2018-09-02T00:11:30.158Z,60.20
2018-09-02T00:12:30.125Z,59.47
2018-09-02T00:13:30.108Z,59.75
2018-09-02T00:14:30.075Z,59.37
2018-09-02T00:15:30.055Z,59.63
2018-09-02T00:16:30.031Z,59.37
2018-09-02T00:17:29.995Z,57.36
2018-09-02T00:18:29.977Z,57.93
2018-09-02T00:19:29.952Z,58.80
2018-09-02T00:20:29.929Z,60.61
2018-09-02T00:21:29.905Z,60.42
2018-09-02T00:22:29.866Z,61.16
2018-09-02T00:23:29.859Z,60.30
2018-09-02T00:24:29.816Z,60.39
2018-09-02T00:25:29.798Z,59.63
2018-09-02T00:26:29.772Z,59.53
2018-09-02T00:27:29.739Z,58.00
2018-09-02T00:28:29.718Z,59.05
2018-09-02T00:29:29.686Z,57.53
2018-09-02T00:30:29.670Z,57.81
2018-09-02T00:31:29.642Z,58.19
2018-09-02T00:32:29.612Z,59.34
2018-09-02T00:33:29.589Z,58.29
2018-09-02T00:34:29.564Z,58.19
2018-09-02T00:35:29.529Z,57.81
2018-09-02T00:36:29.517Z,57.71
2018-09-02T00:37:29.485Z,57.43
2018-09-02T00:38:29.460Z,56.28
2018-09-02T00:39:29.427Z,56.67
2018-09-02T00:40:29.402Z,56.09
2018-09-02T00:41:29.382Z,56.76
2018-09-02T00:42:29.348Z,55.87
2018-09-02T00:43:29.332Z,54.53
2018-09-02T00:44:29.306Z,54.53
2018-09-02T00:45:29.272Z,54.82
2018-09-02T00:46:29.254Z,54.06
2018-09-02T00:47:29.223Z,52.53
2018-09-02T00:48:29.234Z,50.62
2018-09-02T00:49:29.164Z,51.19
2018-09-02T00:50:29.150Z,50.04
2018-09-02T00:51:29.117Z,51.19
2018-09-02T00:52:29.093Z,50.52
2018-09-02T00:53:29.070Z,50.24
2018-09-02T00:54:29.035Z,51.79
2018-09-02T00:55:29.022Z,51.67
2018-09-02T00:56:28.990Z,51.57
2018-09-02T00:57:28.963Z,49.85
2018-09-02T00:58:28.941Z,50.33
2018-09-02T00:59:28.906Z,48.90
2018-09-02T01:00:28.880Z,48.61
2018-09-02T01:01:28.859Z,48.80
2018-09-02T01:02:28.832Z,49.18
2018-09-02T01:03:28.811Z,48.71
2018-09-02T01:04:28.776Z,47.66
2018-09-02T01:05:28.758Z,47.56
2018-09-02T01:06:28.735Z,45.08
2018-09-02T01:07:28.701Z,45.65
2018-09-02T01:08:28.674Z,44.79
2018-09-02T01:09:28.647Z,45.94
2018-09-02T01:10:28.628Z,47.11
2018-09-02T01:11:28.595Z,46.51
2018-09-02T01:12:28.571Z,45.94
2018-09-02T01:13:28.549Z,47.66
2018-09-02T01:14:28.517Z,48.71
2018-09-02T01:15:28.498Z,47.39
2018-09-02T01:16:28.469Z,48.90
2018-09-02T01:17:28.442Z,47.56
2018-09-02T01:18:28.413Z,48.33
2018-09-02T01:19:28.384Z,47.47
2018-09-02T01:20:28.369Z,47.18
2018-09-02T01:21:28.333Z,45.84
2018-09-02T01:22:28.310Z,45.65
2018-09-02T01:23:28.289Z,44.34
2018-09-02T01:24:28.262Z,44.81
2018-09-02T01:25:28.241Z,46.13
2018-09-02T01:26:28.213Z,47.39
2018-09-02T01:27:28.180Z,47.11
2018-09-02T01:28:28.157Z,46.89
2018-09-02T01:29:28.128Z,46.25
2018-09-02T01:30:28.103Z,47.30
2018-09-02T01:31:28.083Z,46.53
2018-09-02T01:32:28.050Z,46.06
2018-09-02T01:33:28.035Z,47.39
2018-09-02T01:34:27.995Z,46.63
2018-09-02T01:35:27.981Z,45.77
2018-09-02T01:36:27.946Z,45.96
2018-09-02T01:37:27.917Z,45.20
2018-09-02T01:38:27.891Z,46.06
2018-09-02T01:39:27.875Z,46.44
2018-09-02T01:40:27.839Z,46.63
2018-09-02T01:41:27.822Z,46.44
2018-09-02T01:42:27.792Z,46.44
2018-09-02T01:43:27.764Z,46.15
2018-09-02T01:44:27.741Z,45.77
2018-09-02T01:45:27.712Z,45.39
2018-09-02T01:46:27.692Z,46.03
2018-09-02T01:47:27.663Z,44.05
2018-09-02T01:48:27.635Z,43.38
2018-09-02T01:49:27.612Z,42.81
2018-09-02T01:50:27.583Z,44.43
2018-09-02T01:51:27.560Z,44.05
2018-09-02T01:52:27.533Z,43.48
2018-09-02T01:53:27.505Z,43.38
2018-09-02T01:54:27.482Z,44.15
2018-09-02T01:55:27.449Z,43.48
2018-09-02T01:56:27.439Z,43.38
2018-09-02T01:57:27.401Z,45.29
2018-09-02T01:58:27.381Z,44.91
2018-09-02T01:59:27.350Z,44.62
2018-09-02T02:00:27.321Z,46.25
2018-09-02T02:01:27.295Z,45.29
2018-09-02T02:02:27.268Z,45.17
2018-09-02T02:03:27.248Z,45.56
2018-09-02T02:04:27.213Z,44.22
2018-09-02T02:05:27.203Z,44.31
2018-09-02T02:06:27.175Z,45.27
2018-09-02T02:07:27.141Z,44.70
2018-09-02T02:08:27.120Z,44.22
2018-09-02T02:09:27.084Z,45.17
2018-09-02T02:10:27.064Z,45.17
2018-09-02T02:11:27.034Z,44.02
2018-09-02T02:12:27.008Z,43.46
2018-09-02T02:13:26.988Z,43.46
2018-09-02T02:14:26.968Z,43.36
2018-09-02T02:15:26.936Z,44.70
2018-09-02T02:16:26.908Z,45.46
2018-09-02T02:17:26.878Z,44.22
2018-09-02T02:18:26.857Z,43.84
2018-09-02T02:19:26.826Z,44.02
2018-09-02T02:20:26.801Z,43.55
2018-09-02T02:21:26.777Z,43.46
2018-09-02T02:22:26.750Z,43.36
2018-09-02T02:23:26.721Z,42.69
2018-09-02T02:24:26.701Z,43.55
2018-09-02T02:25:26.669Z,43.93
2018-09-02T02:26:26.647Z,43.55
2018-09-02T02:27:26.619Z,42.60
2018-09-02T02:28:26.590Z,42.88
2018-09-02T02:29:26.572Z,42.79
2018-09-02T02:30:26.543Z,42.31
2018-09-02T02:31:26.510Z,42.02
2018-09-02T02:32:26.493Z,42.50
2018-09-02T02:33:26.458Z,42.31
2018-09-02T02:34:26.432Z,42.79
2018-09-02T02:35:26.413Z,42.69
2018-09-02T02:36:26.378Z,42.69
2018-09-02T02:37:26.364Z,42.50
2018-09-02T02:38:26.335Z,42.69
2018-09-02T02:39:26.305Z,43.46
2018-09-02T02:40:26.289Z,43.46
2018-09-02T02:41:26.248Z,44.31
2018-09-02T02:42:26.245Z,43.17
2018-09-02T02:43:26.200Z,43.36
2018-09-02T02:44:26.173Z,42.97
2018-09-02T02:45:26.153Z,42.79
2018-09-02T02:46:26.123Z,42.40
2018-09-02T02:47:26.095Z,42.40
2018-09-02T02:48:26.073Z,42.97
2018-09-02T02:49:26.043Z,42.88
2018-09-02T02:50:26.022Z,42.79
2018-09-02T02:51:25.989Z,43.46
2018-09-02T02:52:25.964Z,43.46
2018-09-02T02:53:25.935Z,43.55
2018-09-02T02:54:25.908Z,42.60
2018-09-02T02:55:25.892Z,42.88
2018-09-02T02:56:25.869Z,42.60
2018-09-02T02:57:25.835Z,42.88
2018-09-02T02:58:25.807Z,42.31
2018-09-02T02:59:25.811Z,42.21
2018-09-02T03:00:25.755Z,40.97
2018-09-02T03:01:25.735Z,41.93
2018-09-02T03:02:25.703Z,40.97
2018-09-02T03:03:25.675Z,40.78
2018-09-02T03:04:25.657Z,41.06
2018-09-02T03:05:25.622Z,41.83
2018-09-02T03:06:25.604Z,41.93
2018-09-02T03:07:25.573Z,41.45
2018-09-02T03:08:25.545Z,41.45
2018-09-02T03:09:25.529Z,40.97
2018-09-02T03:10:25.500Z,41.16
2018-09-02T03:11:25.492Z,41.26
2018-09-02T03:12:25.443Z,40.78
2018-09-02T03:13:25.420Z,41.35
2018-09-02T03:14:25.387Z,41.74
2018-09-02T03:15:25.374Z,41.35
2018-09-02T03:16:25.340Z,40.88
2018-09-02T03:17:25.321Z,41.55
2018-09-02T03:18:25.284Z,42.31
2018-09-02T03:19:25.268Z,42.02
2018-09-02T03:20:25.244Z,42.02
2018-09-02T03:21:25.208Z,41.93
2018-09-02T03:22:25.187Z,41.83
2018-09-02T03:23:25.155Z,42.60
2018-09-02T03:24:25.128Z,42.79
2018-09-02T03:25:25.108Z,42.40
2018-09-02T03:26:25.085Z,42.40
2018-09-02T03:27:25.049Z,42.40
2018-09-02T03:28:25.021Z,42.79
2018-09-02T03:29:25.005Z,43.65
2018-09-02T03:30:24.978Z,43.55
2018-09-02T03:31:24.944Z,42.11
2018-09-02T03:32:24.999Z,41.35
2018-09-02T03:33:24.903Z,41.93
2018-09-02T03:34:24.867Z,42.40
2018-09-02T03:35:24.845Z,42.21
2018-09-02T03:36:24.816Z,42.50
2018-09-02T03:37:24.793Z,42.69
2018-09-02T03:38:24.765Z,42.69
2018-09-02T03:39:24.740Z,43.36
2018-09-02T03:40:24.719Z,43.36
2018-09-02T03:41:24.684Z,43.65
2018-09-02T03:42:24.665Z,45.27
2018-09-02T03:43:24.635Z,45.08
2018-09-02T03:44:24.604Z,44.02
2018-09-02T03:45:24.588Z,44.51
2018-09-02T03:46:24.555Z,45.17
2018-09-02T03:47:24.531Z,44.87
2018-09-02T03:48:24.505Z,44.58
2018-09-02T03:49:24.474Z,44.89
2018-09-02T03:50:24.449Z,44.87
2018-09-02T03:51:24.419Z,44.31
2018-09-02T03:52:24.402Z,44.20
2018-09-02T03:53:24.372Z,44.22
2018-09-02T03:54:24.348Z,44.70
2018-09-02T03:55:24.319Z,44.22
2018-09-02T03:56:24.298Z,44.38
2018-09-02T03:57:24.267Z,43.93
2018-09-02T03:58:24.245Z,44.02
2018-09-02T03:59:24.215Z,43.93
2018-09-02T04:00:24.198Z,44.41
2018-09-02T04:01:24.159Z,44.02
2018-09-02T04:02:24.138Z,43.82
2018-09-02T04:03:24.108Z,44.29
2018-09-02T04:04:24.080Z,43.53
2018-09-02T04:05:24.063Z,42.67
2018-09-02T04:06:24.028Z,42.00
2018-09-02T04:07:24.002Z,41.14
2018-09-02T04:08:23.974Z,40.66
2018-09-02T04:09:23.957Z,41.16
2018-09-02T04:10:23.928Z,41.81
2018-09-02T04:11:24.000Z,41.81
2018-09-02T04:12:23.877Z,41.43
2018-09-02T04:13:23.852Z,40.86
2018-09-02T04:14:23.823Z,40.95
2018-09-02T04:15:23.797Z,41.33
2018-09-02T04:16:23.768Z,40.09
2018-09-02T04:17:23.742Z,40.37
2018-09-02T04:18:23.714Z,39.61
2018-09-02T04:19:23.692Z,39.14
2018-09-02T04:20:23.662Z,39.42
2018-09-02T04:21:23.647Z,39.71
2018-09-02T04:22:23.616Z,40.76
2018-09-02T04:23:23.582Z,40.47
2018-09-02T04:24:23.562Z,41.91
2018-09-02T04:25:23.530Z,41.05
2018-09-02T04:26:23.645Z,41.43
2018-09-02T04:27:23.488Z,40.00
2018-09-02T04:28:23.465Z,39.23
2018-09-02T04:29:23.435Z,38.85
2018-09-02T04:30:23.471Z,38.76
2018-09-02T04:31:23.373Z,38.56
2018-09-02T04:32:23.356Z,38.95
2018-09-02T04:33:23.323Z,42.00
2018-09-02T04:34:23.293Z,40.86
2018-09-02T04:35:23.282Z,39.61
2018-09-02T04:36:23.292Z,39.32
2018-09-02T04:37:23.227Z,39.52
2018-09-02T04:38:23.196Z,41.43
2018-09-02T04:39:23.166Z,40.09
2018-09-02T04:40:23.145Z,42.00
2018-09-02T04:41:23.118Z,40.47
2018-09-02T04:42:23.125Z,40.09
2018-09-02T04:43:23.063Z,40.09
2018-09-02T04:44:23.041Z,40.47
2018-09-02T04:45:23.106Z,40.57
2018-09-02T04:46:22.983Z,41.05
2018-09-02T04:47:22.970Z,41.43
2018-09-02T04:48:22.934Z,42.48
2018-09-02T04:49:22.903Z,42.38
2018-09-02T04:50:22.886Z,42.57
2018-09-02T04:51:22.849Z,42.48
2018-09-02T04:52:22.825Z,42.38
2018-09-02T04:53:22.802Z,42.48
2018-09-02T04:54:22.840Z,42.57
2018-09-02T04:55:22.749Z,42.38
2018-09-02T04:56:22.726Z,42.19
2018-09-02T04:57:22.704Z,42.19
2018-09-02T04:58:22.668Z,41.81
2018-09-02T04:59:22.642Z,43.24
2018-09-02T05:00:22.650Z,41.91
2018-09-02T05:01:22.588Z,41.24
2018-09-02T05:02:22.561Z,40.09
2018-09-02T05:03:22.541Z,39.81
2018-09-02T05:04:22.514Z,39.61
2018-09-02T05:05:22.493Z,39.61
2018-09-02T05:06:22.461Z,39.81
2018-09-02T05:07:22.432Z,40.57
2018-09-02T05:08:22.433Z,40.37
2018-09-02T05:09:22.378Z,40.37
2018-09-02T05:10:22.349Z,40.66
2018-09-02T05:11:22.337Z,40.86
2018-09-02T05:12:22.302Z,40.28
2018-09-02T05:13:22.279Z,40.95
2018-09-02T05:14:22.255Z,40.95
2018-09-02T05:15:22.221Z,40.95
2018-09-02T05:16:22.193Z,41.14
2018-09-02T05:17:22.178Z,41.43
2018-09-02T05:18:22.139Z,40.57
2018-09-02T05:19:22.122Z,40.57
2018-09-02T05:20:22.094Z,40.66
2018-09-02T05:21:22.072Z,40.76
2018-09-02T05:22:22.048Z,40.76
2018-09-02T05:23:22.019Z,42.38
2018-09-02T05:24:21.994Z,40.66
2018-09-02T05:25:21.956Z,40.00
2018-09-02T05:26:21.939Z,39.81
2018-09-02T05:27:21.903Z,39.90
2018-09-02T05:28:21.883Z,39.90
2018-09-02T05:29:21.853Z,39.71
2018-09-02T05:30:21.832Z,39.90
2018-09-02T05:31:21.806Z,39.90
2018-09-02T05:32:21.830Z,41.24
2018-09-02T05:33:21.755Z,38.95
2018-09-02T05:34:21.723Z,38.18
2018-09-02T05:35:21.698Z,37.90
2018-09-02T05:36:21.680Z,37.61
2018-09-02T05:37:21.647Z,37.04
2018-09-02T05:38:21.621Z,36.85
2018-09-02T05:39:21.595Z,36.37
2018-09-02T05:40:21.564Z,36.27
2018-09-02T05:41:21.550Z,35.41
2018-09-02T05:42:21.517Z,37.13
2018-09-02T05:43:21.489Z,36.37
2018-09-02T05:44:21.471Z,34.94
2018-09-02T05:45:21.441Z,35.41
2018-09-02T05:46:21.415Z,33.89
2018-09-02T05:47:21.387Z,34.27
2018-09-02T05:48:21.365Z,33.41
2018-09-02T05:49:21.329Z,32.36
2018-09-02T05:50:21.301Z,33.03
2018-09-02T05:51:21.287Z,32.17
2018-09-02T05:52:21.260Z,32.55
2018-09-02T05:53:21.226Z,31.69
2018-09-02T05:54:21.201Z,32.17
2018-09-02T05:55:21.175Z,31.50
2018-09-02T05:56:21.153Z,31.31
2018-09-02T05:57:21.122Z,31.31
2018-09-02T05:58:21.103Z,31.31
2018-09-02T05:59:21.065Z,30.16
2018-09-02T06:00:21.048Z,29.69
2018-09-02T06:01:21.014Z,29.02
2018-09-02T06:02:20.987Z,28.44
2018-09-02T06:03:20.971Z,28.44
2018-09-02T06:04:20.937Z,28.73
2018-09-02T06:05:20.918Z,28.54
2018-09-02T06:06:20.883Z,27.78
2018-09-02T06:07:20.864Z,27.39
2018-09-02T06:08:20.837Z,27.11
2018-09-02T06:09:20.811Z,27.20
2018-09-02T06:10:20.778Z,26.92
2018-09-02T06:11:20.760Z,27.20
2018-09-02T06:12:20.727Z,26.73
2018-09-02T06:13:20.710Z,26.63
2018-09-02T06:14:20.706Z,26.34
2018-09-02T06:15:20.653Z,25.39
2018-09-02T06:16:20.626Z,25.77
2018-09-02T06:17:20.764Z,25.20
2018-09-02T06:18:20.570Z,25.77
2018-09-02T06:19:20.547Z,25.96
2018-09-02T06:20:20.519Z,26.07
2018-09-02T06:21:20.495Z,25.40
2018-09-02T06:22:20.468Z,25.40
2018-09-02T06:23:20.447Z,25.69
2018-09-02T06:24:20.420Z,24.54
2018-09-02T06:25:20.388Z,24.93
2018-09-02T06:26:20.367Z,24.54
2018-09-02T06:27:20.336Z,24.64
2018-09-02T06:28:20.321Z,24.35
2018-09-02T06:29:20.283Z,23.88
2018-09-02T06:30:20.257Z,23.68
2018-09-02T06:31:20.233Z,23.78
2018-09-02T06:32:20.216Z,23.21
2018-09-02T06:33:20.185Z,23.59
2018-09-02T06:34:20.152Z,23.78
2018-09-02T06:35:20.156Z,23.30
2018-09-02T06:36:20.179Z,22.54
2018-09-02T06:37:20.072Z,22.92
2018-09-02T06:38:20.052Z,22.25
2018-09-02T06:39:20.068Z,22.73
2018-09-02T06:40:19.993Z,22.83
2018-09-02T06:41:19.971Z,23.39
2018-09-02T06:42:19.945Z,23.97
2018-09-02T06:43:19.915Z,23.69
2018-09-02T06:44:19.888Z,23.98
2018-09-02T06:45:19.873Z,24.18
2018-09-02T06:46:19.841Z,23.89
2018-09-02T06:47:19.819Z,23.60
2018-09-02T06:48:19.786Z,23.41
2018-09-02T06:49:19.760Z,23.12
2018-09-02T06:50:19.741Z,22.83
2018-09-02T06:51:19.705Z,22.07
2018-09-02T06:52:19.683Z,22.55
2018-09-02T06:53:19.666Z,22.45
2018-09-02T06:54:19.630Z,22.26
2018-09-02T06:55:19.607Z,22.26
2018-09-02T06:56:19.581Z,22.26
2018-09-02T06:57:19.551Z,22.07
2018-09-02T06:58:19.528Z,21.21
2018-09-02T06:59:19.505Z,20.73
2018-09-02T07:00:19.472Z,20.54
2018-09-02T07:01:19.453Z,20.75
2018-09-02T07:02:19.426Z,21.03
2018-09-02T07:03:19.396Z,21.12
2018-09-02T07:04:19.374Z,20.45
2018-09-02T07:05:19.340Z,20.06
2018-09-02T07:06:19.313Z,20.55
2018-09-02T07:07:19.349Z,21.03
2018-09-02T07:08:19.263Z,20.75
2018-09-02T07:09:19.244Z,20.26
2018-09-02T07:10:19.217Z,19.40
2018-09-02T07:11:19.186Z,19.40
2018-09-02T07:12:19.166Z,20.46
2018-09-02T07:13:19.132Z,19.69
2018-09-02T07:14:19.126Z,20.65
2018-09-02T07:15:19.086Z,20.75
2018-09-02T07:16:19.054Z,20.46
2018-09-02T07:17:19.036Z,19.50
2018-09-02T07:18:19.008Z,19.98
2018-09-02T07:19:18.979Z,20.26
2018-09-02T07:20:18.956Z,20.84
2018-09-02T07:21:18.927Z,20.75
2018-09-02T07:22:18.898Z,22.18
2018-09-02T07:23:18.877Z,22.66
2018-09-02T07:24:18.851Z,22.27
2018-09-02T07:25:18.826Z,21.61
2018-09-02T07:26:18.802Z,21.90
2018-09-02T07:27:18.769Z,21.71
2018-09-02T07:28:18.747Z,22.47
2018-09-02T07:29:18.717Z,21.90
2018-09-02T07:30:18.693Z,21.42
2018-09-02T07:31:18.679Z,21.33
2018-09-02T07:32:18.641Z,22.09
2018-09-02T07:33:18.617Z,21.61
2018-09-02T07:34:18.587Z,21.61
2018-09-02T07:35:18.564Z,20.66
2018-09-02T07:36:18.541Z,20.85
2018-09-02T07:37:18.515Z,21.42
2018-09-02T07:38:18.480Z,21.04
2018-09-02T07:39:18.461Z,21.04
2018-09-02T07:40:18.435Z,21.81
2018-09-02T07:41:18.404Z,20.85
2018-09-02T07:42:18.388Z,22.09
2018-09-02T07:43:18.350Z,21.90
2018-09-02T07:44:18.332Z,23.14
2018-09-02T07:45:18.306Z,23.53
2018-09-02T07:46:18.275Z,23.91
2018-09-02T07:47:18.257Z,24.02
2018-09-02T07:48:18.227Z,24.11
2018-09-02T07:49:18.198Z,25.07
2018-09-02T07:50:18.169Z,25.65
2018-09-02T07:51:18.152Z,25.45
2018-09-02T07:52:18.127Z,25.65
2018-09-02T07:53:18.094Z,26.12
2018-09-02T07:54:18.069Z,25.93
2018-09-02T07:55:18.040Z,26.60
2018-09-02T07:56:18.023Z,27.84
2018-09-02T07:57:17.992Z,28.80
2018-09-02T07:58:17.969Z,29.38
2018-09-02T07:59:17.942Z,29.09
2018-09-02T08:00:17.913Z,29.86
2018-09-02T08:01:17.894Z,30.24
2018-09-02T08:02:17.864Z,31.12
2018-09-02T08:03:17.838Z,31.69
2018-09-02T08:04:17.813Z,32.17
2018-09-02T08:05:17.786Z,32.36
2018-09-02T08:06:17.757Z,32.84
2018-09-02T08:07:17.738Z,32.84
2018-09-02T08:08:17.704Z,33.89
2018-09-02T08:09:17.681Z,35.81
2018-09-02T08:10:17.662Z,37.05
2018-09-02T08:11:17.628Z,37.72
2018-09-02T08:12:17.633Z,39.16
2018-09-02T08:13:17.582Z,39.73
2018-09-02T08:14:17.549Z,42.13
2018-09-02T08:15:17.534Z,42.70
2018-09-02T08:16:17.503Z,43.77
2018-09-02T08:17:17.474Z,46.65
2018-09-02T08:18:17.454Z,48.09
2018-09-02T08:19:17.425Z,49.14
2018-09-02T08:20:17.396Z,50.38
2018-09-02T08:21:17.380Z,49.05
2018-09-02T08:22:17.347Z,49.91
2018-09-02T08:23:17.321Z,50.67
2018-09-02T08:24:17.305Z,52.01
2018-09-02T08:25:17.270Z,52.20
2018-09-02T08:26:17.250Z,53.07
2018-09-02T08:27:17.218Z,52.97
2018-09-02T08:28:17.197Z,53.93
2018-09-02T08:29:17.166Z,54.05
2018-09-02T08:30:17.140Z,53.48
2018-09-02T08:31:17.116Z,54.15
2018-09-02T08:32:17.094Z,55.40
2018-09-02T08:33:17.059Z,56.93
2018-09-02T08:34:17.040Z,57.60
2018-09-02T08:35:17.018Z,57.31
2018-09-02T08:36:17.004Z,56.54
2018-09-02T08:37:16.967Z,56.54
2018-09-02T08:38:16.936Z,57.41
2018-09-02T08:39:16.970Z,57.70
2018-09-02T08:40:16.887Z,57.41
2018-09-02T08:41:16.863Z,58.20
2018-09-02T08:42:16.837Z,60.12
2018-09-02T08:43:16.812Z,60.12
2018-09-02T08:44:16.845Z,60.50
2018-09-02T08:45:16.752Z,60.50
2018-09-02T08:46:16.728Z,60.79
2018-09-02T08:47:16.707Z,61.66
2018-09-02T08:48:16.678Z,62.33
2018-09-02T08:49:16.659Z,62.42
2018-09-02T08:50:16.645Z,63.38
2018-09-02T08:51:16.600Z,65.33
2018-09-02T08:52:16.582Z,64.09
2018-09-02T08:53:16.549Z,63.67
2018-09-02T08:54:16.530Z,64.63
2018-09-02T08:55:16.515Z,63.99
2018-09-02T08:56:16.472Z,62.84
2018-09-02T08:57:16.445Z,66.77
2018-09-02T08:58:16.469Z,67.06
2018-09-02T08:59:16.401Z,67.63
2018-09-02T09:00:16.381Z,70.03
2018-09-02T09:01:16.352Z,69.65
2018-09-02T09:02:16.324Z,70.42
2018-09-02T09:03:16.296Z,70.90
2018-09-02T09:04:16.275Z,71.95
2018-09-02T09:05:16.246Z,76.84
2018-09-02T09:06:16.217Z,74.19
2018-09-02T09:07:16.202Z,74.16
2018-09-02T09:08:16.590Z,75.54
2018-09-02T09:09:16.300Z,75.06
2018-09-02T09:10:16.113Z,74.96
2018-09-02T09:11:16.090Z,75.25
2018-09-02T09:12:16.063Z,74.19
2018-09-02T09:13:16.040Z,74.58
2018-09-02T09:14:16.020Z,75.92
2018-09-02T09:15:15.985Z,75.54
2018-09-02T09:16:15.968Z,77.94
2018-09-02T09:17:15.984Z,76.69
2018-09-02T09:18:15.920Z,77.65
2018-09-02T09:19:15.897Z,78.32
2018-09-02T09:20:15.867Z,76.98
2018-09-02T09:21:15.836Z,78.23
2018-09-02T09:22:15.812Z,78.36
2018-09-02T09:23:15.792Z,79.19
2018-09-02T09:24:15.761Z,80.34
2018-09-02T09:25:15.845Z,80.05
2018-09-02T09:26:15.711Z,80.57
2018-09-02T09:27:15.683Z,81.40
2018-09-02T09:28:15.665Z,80.19
2018-09-02T09:29:15.631Z,80.47
2018-09-02T09:30:15.745Z,80.66
2018-09-02T09:31:15.584Z,80.47
2018-09-02T09:32:15.575Z,80.86
2018-09-02T09:33:15.532Z,79.52
2018-09-02T09:34:16.321Z,80.09
2018-09-02T09:35:15.485Z,80.76
2018-09-02T09:36:15.456Z,81.05
2018-09-02T09:37:15.437Z,80.47
2018-09-02T09:38:15.403Z,80.57
2018-09-02T09:39:15.387Z,80.38
2018-09-02T09:40:15.362Z,81.15
2018-09-02T09:41:15.382Z,82.49
2018-09-02T09:42:15.305Z,81.48
2018-09-02T09:43:15.278Z,83.16
2018-09-02T09:44:15.257Z,83.01
2018-09-02T09:45:15.236Z,83.01
2018-09-02T09:46:15.209Z,83.69
2018-09-02T09:47:15.185Z,84.17
2018-09-02T09:48:15.160Z,84.36
2018-09-02T09:49:15.125Z,85.51
2018-09-02T09:50:15.101Z,87.62
2018-09-02T09:51:15.089Z,87.82
2018-09-02T09:52:15.056Z,87.15
2018-09-02T09:53:15.065Z,86.85
2018-09-02T09:54:15.007Z,86.85
2018-09-02T09:55:14.999Z,87.05
2018-09-02T09:56:14.952Z,88.30
2018-09-02T09:57:14.931Z,88.10
2018-09-02T09:58:14.910Z,88.06
2018-09-02T09:59:14.874Z,89.36
2018-09-02T10:00:14.852Z,88.06
2018-09-02T10:01:14.824Z,91.32
2018-09-02T10:02:14.810Z,89.40
2018-09-02T10:03:14.781Z,88.44
2018-09-02T10:04:14.749Z,89.59
2018-09-02T10:05:14.736Z,89.88
2018-09-02T10:06:14.705Z,89.11
2018-09-02T10:07:14.674Z,90.55
2018-09-02T10:08:14.657Z,89.69
2018-09-02T10:09:14.632Z,90.26
2018-09-02T10:10:14.634Z,90.17
2018-09-02T10:11:14.582Z,90.17
2018-09-02T10:12:14.548Z,90.36
2018-09-02T10:13:14.533Z,90.45
2018-09-02T10:14:14.504Z,90.45
2018-09-02T10:15:14.481Z,90.45
2018-09-02T10:16:14.456Z,90.17
2018-09-02T10:17:14.453Z,90.55
2018-09-02T10:18:14.442Z,90.26
2018-09-02T10:19:14.377Z,90.65
2018-09-02T10:20:14.361Z,90.45
2018-09-02T10:21:14.329Z,90.36
2018-09-02T10:22:14.302Z,90.55
2018-09-02T10:23:14.275Z,90.84
2018-09-02T10:24:14.247Z,91.13
2018-09-02T10:25:14.230Z,89.98
2018-09-02T10:26:14.200Z,89.92
2018-09-02T10:27:14.234Z,90.12
2018-09-02T10:28:14.164Z,90.12
2018-09-02T10:29:14.121Z,90.02
2018-09-02T10:30:14.104Z,90.41
2018-09-02T10:31:14.079Z,89.83
2018-09-02T10:32:14.055Z,89.64
2018-09-02T10:33:14.044Z,89.64
2018-09-02T10:34:13.996Z,89.64
2018-09-02T10:35:13.981Z,89.64
2018-09-02T10:36:13.951Z,89.06
2018-09-02T10:37:13.929Z,89.54
2018-09-02T10:38:13.909Z,89.15
2018-09-02T10:39:13.871Z,89.92
2018-09-02T10:40:13.860Z,89.64
2018-09-02T10:41:14.072Z,89.83
2018-09-02T10:42:13.796Z,89.92
2018-09-02T10:43:13.780Z,89.44
2018-09-02T10:44:13.747Z,88.96
2018-09-02T10:45:13.730Z,88.00
2018-09-02T10:46:13.702Z,88.00
2018-09-02T10:47:13.677Z,87.37
2018-09-02T10:48:13.658Z,87.76
2018-09-02T10:49:13.627Z,87.66
2018-09-02T10:50:13.602Z,87.81
2018-09-02T10:51:13.580Z,87.18
2018-09-02T10:52:13.556Z,87.85
2018-09-02T10:53:13.534Z,87.27
2018-09-02T10:54:13.505Z,87.18
2018-09-02T10:55:13.475Z,87.85
2018-09-02T10:56:13.458Z,86.60
2018-09-02T10:57:13.434Z,85.35
2018-09-02T10:58:13.400Z,85.35
2018-09-02T10:59:13.380Z,84.97
2018-09-02T11:00:13.353Z,86.22
2018-09-02T11:01:13.329Z,86.79
2018-09-02T11:02:13.313Z,86.02
2018-09-02T11:03:13.275Z,85.44
2018-09-02T11:04:13.259Z,82.75
2018-09-02T11:05:13.226Z,82.08
2018-09-02T11:06:13.200Z,83.81
2018-09-02T11:07:13.185Z,83.14
2018-09-02T11:08:13.159Z,83.37
2018-09-02T11:09:13.135Z,84.23
2018-09-02T11:10:13.102Z,85.39
2018-09-02T11:11:13.083Z,82.41
2018-09-02T11:12:13.059Z,81.50
2018-09-02T11:13:13.118Z,79.52
2018-09-02T11:14:13.003Z,77.50
2018-09-02T11:15:13.006Z,79.52
2018-09-02T11:16:12.959Z,81.83
2018-09-02T11:17:12.934Z,81.45
2018-09-02T11:18:12.909Z,79.81
2018-09-02T11:19:12.891Z,75.48
2018-09-02T11:20:12.874Z,77.98
2018-09-02T11:21:12.849Z,78.75
2018-09-02T11:22:12.843Z,78.85
2018-09-02T11:23:12.794Z,78.65
2018-09-02T11:24:12.914Z,77.59
2018-09-02T11:25:12.732Z,75.09
2018-09-02T11:26:12.709Z,76.44
2018-09-02T11:27:12.683Z,78.46
2018-09-02T11:28:12.654Z,79.81
2018-09-02T11:29:12.640Z,80.14
2018-09-02T11:30:12.620Z,82.26
2018-09-02T11:31:12.581Z,81.20
2018-09-02T11:32:12.558Z,82.45
2018-09-02T11:33:12.538Z,81.96
2018-09-02T11:34:12.531Z,80.96
2018-09-02T11:35:12.493Z,82.35
2018-09-02T11:36:12.462Z,80.71
2018-09-02T11:37:12.439Z,79.46
2018-09-02T11:38:12.659Z,79.46
2018-09-02T11:39:12.475Z,77.15
2018-09-02T11:40:12.368Z,78.88
2018-09-02T11:41:12.344Z,78.02
2018-09-02T11:42:12.312Z,77.34
2018-09-02T11:43:12.290Z,77.44
2018-09-02T11:44:12.269Z,77.92
2018-09-02T11:45:12.317Z,77.25
2018-09-02T11:46:12.220Z,79.66
2018-09-02T11:47:12.196Z,77.83
2018-09-02T11:48:12.168Z,78.50
2018-09-02T11:49:12.142Z,77.34
2018-09-02T11:50:12.120Z,79.08
2018-09-02T11:51:12.098Z,78.50
2018-09-02T11:52:12.071Z,78.79
2018-09-02T11:53:12.050Z,78.34
2018-09-02T11:54:12.016Z,78.06
2018-09-02T11:55:12.000Z,74.68
2018-09-02T11:56:11.975Z,76.61
2018-09-02T11:57:11.944Z,74.88
2018-09-02T11:58:11.928Z,76.80
2018-09-02T11:59:11.907Z,75.45
2018-09-02T12:00:11.872Z,76.23
2018-09-02T12:01:11.851Z,74.10
2018-09-02T12:02:11.824Z,74.30
2018-09-02T12:03:11.803Z,71.70
2018-09-02T12:04:11.782Z,74.49
2018-09-02T12:05:11.750Z,73.14
2018-09-02T12:06:11.728Z,74.20
2018-09-02T12:07:11.707Z,75.93
2018-09-02T12:08:11.689Z,71.89
2018-09-02T12:09:11.654Z,73.62
2018-09-02T12:10:11.632Z,73.43
2018-09-02T12:11:11.605Z,74.10
2018-09-02T12:12:11.584Z,75.45
2018-09-02T12:13:11.563Z,75.36
2018-09-02T12:14:11.535Z,75.26
2018-09-02T12:15:11.506Z,74.20
2018-09-02T12:16:11.486Z,74.01
2018-09-02T12:17:11.503Z,74.58
2018-09-02T12:18:11.765Z,73.43
2018-09-02T12:19:11.467Z,73.24
2018-09-02T12:20:11.383Z,74.20
2018-09-02T12:21:11.358Z,74.58
2018-09-02T12:22:11.350Z,74.88
2018-09-02T12:23:11.310Z,76.26
2018-09-02T12:24:11.306Z,75.40
2018-09-02T12:25:11.278Z,74.05
2018-09-02T12:26:11.534Z,74.14
2018-09-02T12:27:11.304Z,71.83
2018-09-02T12:28:11.256Z,70.19
2018-09-02T12:29:11.334Z,70.67
2018-09-02T12:30:18.508Z,74.14
2018-09-02T12:32:04.157Z,72.60
2018-09-02T12:33:04.111Z,71.54
2018-09-02T12:34:04.082Z,72.69
2018-09-02T12:35:04.058Z,71.15
2018-09-02T12:36:04.029Z,70.38
2018-09-02T12:37:04.010Z,71.83
2018-09-02T12:38:03.985Z,71.73
2018-09-02T12:39:03.962Z,69.13
2018-09-02T12:40:03.931Z,71.09
2018-09-02T12:41:03.911Z,70.80
2018-09-02T12:42:03.889Z,69.16
2018-09-02T12:43:03.864Z,70.13
2018-09-02T12:44:03.837Z,69.07
2018-09-02T12:45:03.809Z,70.32
2018-09-02T12:46:03.798Z,69.45
2018-09-02T12:47:03.761Z,68.49
2018-09-02T12:48:03.761Z,67.91
2018-09-02T12:49:03.951Z,66.75
2018-09-02T12:50:03.695Z,68.29
2018-09-02T12:51:03.671Z,68.10
2018-09-02T12:52:03.642Z,68.10
2018-09-02T12:53:03.615Z,68.01